Hlavní strana
METAR-TAF:

METAR-TAF

Letiště :

Oujda, Maroko

zeměpisná šířka: 34-47N, zeměpisná délka: 001-56W, výška: 468 m

Aktuální stav počasí

Zpráva byla vytvořena před 25 minutami, v 04:00 UTC
Severoseverozápadní vítr 7 kt
Teplota 17°C
Vlhkost vzduchu 94%
Tlak 1022 hPa
Viditelnost 10 km a více
Oblačno až skoro zataženo ve výšce 600 ft

METAR: GMFO 260400Z 33007KT 9999 BKN006 17/16 Q1022 NOSIG

Čas: 05:25 (04:25 UTC)

Předpověď počasí

Zpráva byla vytvořena před 5 hodinami a 25 minutami, v 23:00 UTC
Předpověď platná od 26 v 00 UTC do 27 v 06 UTC
Severní vítr 4 kt
Viditelnost: 8000 m
Oblačno až skoro zataženo ve výšce 800 ft
Změna
od 26 v 01 UTC do 26 v 05 UTC
Viditelnost: 3000 m
kouřmo
Změna
od 26 v 13 UTC do 26 v 17 UTC
Severoseverozápadní vítr 14 kt

TAF: GMFO 252300Z 2600/2706 35004KT 8000 BKN008 BECMG 2601/2605 3000 BR BECMG 2613/2617 33014KT

Stav a předpovědi počasí z více než 4 000 letišť (zprávy METAR a TAF).

Červené a žluté tečky na mapě představují dostupné meteorologické stanice.

Když kurzor umístíte na tečku, zobrazí se název stanice.

Pak kliknutím zobrazíte stav a předpověď počasí.

Chcete-li změnit mapu, kliknutím na zelené tlačítko se znaménkem +mapu přiblížíte, kliknutím na zelené tlačítko se znaménkem – mapu oddálíte a kliknutím na zelené šipky přejdete na sousední mapy.


METAR-TAF: